Hope, ME (04847)

12:58 PM EDT on May 26, 2017 (GMT -0400)
Hope, Maine: Church Street Apple Orchard | | Change Station
Active Advisory: Coastal Flood Statement Active Notice: Coastal Flood Statement

Elev 420 ft 44.27 °N, 69.15 °W | Updated 22 seconds ago

Overcast
Overcast
48.9 °F
Feels Like 47 °F
N
5.0
Wind Variable Wind from NE
Gusts 7.0 mph

Today
High -- | Low -- °F
--% Chance of Precip.
Yesterday
High -- | Low -- °F
Precip. -- in
Pressure 29.53 in
Visibility 2.0 miles
Clouds Overcast 400 ft
Windchill 47 °F
Dew Point 49 °F
Humidity 100%
Rainfall 0.00 in
Snow Depth Not available.
4:59 AM 8:08 PM
New Moon, 1% visible
METAR KRKD 261656Z AUTO 05011KT 2SM BR OVC004 09/09 A2952 RMK AO2 RAE1559 SLP998 P0001 T00940089
Pressure 29.53 in
Visibility 2.0 miles
Clouds Overcast 400 ft
Windchill 47 °F
Dew Point 49 °F
Humidity 100%
Rainfall 0.00 in
Snow Depth Not available.
4:59 AM 8:08 PM
New Moon, 1% visible
METAR KRKD 261656Z AUTO 05011KT 2SM BR OVC004 09/09 A2952 RMK AO2 RAE1559 SLP998 P0001 T00940089

Get Your Daily Forecast Email!

Thanks for signing up!

Be on the lookout for a verification email in your inbox.

You'll start receiving severe weather alerts in your inbox..

×

10-Day Weather Forecast

Almanac

Astronomy

May. 26, 2017 Rise Set
Actual Time
Civil Twilight
Nautical Twilight
Astronomical Twilight
Moon
Length of Visible Light
Length of Day
Tomorrow will be .
, % of the Moon is Illuminated

Today's Extremes

State Highs State Lows

Community

WunderPhotos

Category 6

Welcome to Category 6. This is the collective home for Weather Underground's featured writeups by Dr. Jeff Masters (right), Bob Henson (left), Chris Burt, and other regular contributors.

Nearby

Air Quality

  Air Quality AQ Index Pollutant
Not available.

Snow Depth

Station Depth Elevation

Earthquake Activity

City Distance Mag. Time & Date
Minimum magnitude displayed is 2.5.

Coastal Water Temperatures

Place Temperature

Stations

Nearby Weather Stations

Station Location Temp. Windchill Dew Point Humidity Wind Precip. Elev Updated Type
                   

Watches & Warnings

Coastal Flood Statement
Issued: 10:42 AM EDT May. 26, 2017 – National Weather Service

... Isolated minor coastal flooding around the time of high tide
shortly after noon today...

* location... the southwest and midcoast of Maine and seacoast of
New Hampshire.

* Coastal flooding... isolated and minor.

* Timing... around the time of high tide near noon today.